Time;durP1;ratioP1;P1;durP2;ratioP2;P2;SDS_P1;SDS_P2;PMS_P1;PMS_P2;Temp;Humidity;BMP_temperature;BMP_pressure;BME280_temperature;BME280_humidity;BME280_pressure;Samples;Min_cycle;Max_cycle;Signal;HPM_P1;HPM_P2
2023/04/01 00:00:54;;;;;;;2.67;0.93;;;13.20;73.30;;;;;;5007359;28;20030;-45
2023/04/01 00:03:21;;;;;;;4.38;1.10;;;13.20;73.30;;;;;;5023796;28;20049;-46
2023/04/01 00:05:49;;;;;;;1.85;0.80;;;13.20;73.40;;;;;;5020918;28;20473;-45
2023/04/01 00:08:20;;;;;;;1.08;0.47;;;13.20;73.40;;;;;;5011482;28;20041;-45
2023/04/01 00:10:50;;;;;;;1.42;0.63;;;13.20;73.50;;;;;;5005872;28;20062;-47
2023/04/01 00:13:16;;;;;;;1.25;0.60;;;13.20;73.70;;;;;;5028642;28;20038;-46
2023/04/01 00:15:46;;;;;;;1.75;0.60;;;13.10;73.50;;;;;;5013386;28;20533;-44
2023/04/01 00:18:15;;;;;;;2.00;1.17;;;13.20;73.60;;;;;;5018274;28;20042;-46
2023/04/01 00:20:50;;;;;;;1.73;1.02;;;13.10;73.60;;;;;;5018671;28;20057;-45
2023/04/01 00:23:18;;;;;;;2.42;0.70;;;13.20;73.90;;;;;;5015034;28;20075;-46
2023/04/01 00:25:47;;;;;;;1.73;0.98;;;13.10;73.70;;;;;;5028488;28;20603;-46
2023/04/01 00:28:16;;;;;;;0.68;0.60;;;13.10;73.70;;;;;;5030188;28;20096;-44
2023/04/01 00:30:43;;;;;;;2.28;0.70;;;13.10;73.80;;;;;;4997218;28;20049;-46
2023/04/01 00:33:10;;;;;;;1.70;0.82;;;13.10;73.90;;;;;;5021481;28;20051;-46
2023/04/01 00:35:37;;;;;;;2.97;0.60;;;13.10;74.00;;;;;;5010586;28;20143;-45
2023/04/01 00:38:04;;;;;;;4.25;0.93;;;13.10;74.10;;;;;;5019216;28;20068;-44
2023/04/01 00:40:34;;;;;;;2.38;0.93;;;13.10;74.20;;;;;;5020254;28;20037;-46
2023/04/01 00:43:05;;;;;;;1.63;0.60;;;13.10;74.20;;;;;;5026552;28;20088;-47
2023/04/01 00:45:41;;;;;;;;;;;13.10;74.10;;;;;;5011295;28;20040;-47
2023/04/01 00:48:13;;;;;;;1.85;0.60;;;13.20;74.50;;;;;;4992096;28;19921;-48
2023/04/01 00:50:44;;;;;;;1.58;0.60;;;13.10;73.70;;;;;;5015757;28;20684;-47
2023/04/01 00:53:11;;;;;;;2.22;0.80;;;13.10;73.80;;;;;;5018540;28;20033;-47
2023/04/01 00:55:45;;;;;;;3.00;1.17;;;13.10;73.80;;;;;;5010389;28;20041;-48
2023/04/01 00:58:16;;;;;;;1.90;0.55;;;13.10;73.90;;;;;;5008291;28;20080;-46
2023/04/01 01:00:44;;;;;;;3.30;0.80;;;13.10;73.90;;;;;;5011270;28;20042;-45
2023/04/01 01:03:12;;;;;;;1.13;0.50;;;13.10;73.90;;;;;;5011246;28;20091;-48
2023/04/01 01:06:05;;;;;;;2.55;0.95;;;13.10;73.90;;;;;;5010170;28;20049;-46
2023/04/01 01:08:41;;;;;;;2.17;0.68;;;13.10;74.40;;;;;;4997727;28;20192;-45
2023/04/01 01:11:11;;;;;;;1.85;0.55;;;13.10;74.20;;;;;;5017160;28;20042;-46
2023/04/01 01:14:02;;;;;;;0.43;0.43;;;13.10;74.00;;;;;;5007786;28;20072;-45
2023/04/01 01:16:31;;;;;;;1.40;0.50;;;13.10;75.00;;;;;;5010320;28;20387;-44
2023/04/01 01:19:22;;;;;;;0.65;0.30;;;13.10;74.10;;;;;;5009886;28;20041;-46
2023/04/01 01:22:36;;;;;;;2.03;0.40;;;13.10;74.30;;;;;;4990352;28;20045;-48
2023/04/01 01:25:08;;;;;;;0.90;0.50;;;13.10;74.60;;;;;;5014288;28;20124;-48
2023/04/01 01:27:40;;;;;;;1.00;0.75;;;13.00;74.20;;;;;;5032543;28;20044;-49
2023/04/01 01:30:12;;;;;;;1.90;0.60;;;13.00;74.10;;;;;;5020547;28;20029;-47
2023/04/01 01:33:13;;;;;;;1.83;0.70;;;13.00;74.20;;;;;;5014140;28;20116;-45
2023/04/01 01:35:45;;;;;;;;;;;13.00;75.20;;;;;;5014437;28;20042;-44
2023/04/01 01:38:21;;;;;;;1.80;0.55;;;13.00;74.80;;;;;;5001701;28;19928;-45
2023/04/01 01:40:59;;;;;;;1.67;0.60;;;13.00;74.10;;;;;;5029192;28;20050;-47
2023/04/01 01:43:40;;;;;;;1.23;0.52;;;13.00;74.40;;;;;;5003694;28;20056;-44
2023/04/01 01:46:14;;;;;;;0.80;0.60;;;13.00;74.80;;;;;;5007165;28;20549;-44
2023/04/01 01:48:43;;;;;;;2.97;0.90;;;12.90;74.90;;;;;;5015933;28;20073;-45
2023/04/01 01:51:16;;;;;;;2.30;0.95;;;12.90;74.80;;;;;;4994693;28;20046;-46
2023/04/01 01:53:46;;;;;;;2.08;0.57;;;12.90;74.80;;;;;;5024803;28;20037;-44
2023/04/01 01:56:17;;;;;;;1.05;0.70;;;12.90;74.80;;;;;;5006108;28;20508;-45
2023/04/01 01:58:48;;;;;;;2.67;0.80;;;12.90;74.90;;;;;;5000912;28;20050;-48
2023/04/01 02:01:23;;;;;;;1.63;1.10;;;12.90;75.00;;;;;;4997071;28;20073;-44
2023/04/01 02:03:55;;;;;;;1.83;0.85;;;12.90;75.10;;;;;;5010898;28;20068;-48
2023/04/01 02:06:34;;;;;;;2.83;0.70;;;12.80;74.90;;;;;;5011756;28;20046;-44
2023/04/01 02:09:10;;;;;;;3.47;0.95;;;12.90;75.10;;;;;;5006029;28;20518;-47
2023/04/01 02:11:47;;;;;;;1.52;0.90;;;12.90;75.20;;;;;;5011080;28;20543;-47
2023/04/01 02:14:20;;;;;;;1.25;0.60;;;12.80;75.30;;;;;;5014551;28;20042;-45
2023/04/01 02:17:10;;;;;;;0.98;0.75;;;12.80;75.10;;;;;;4987634;28;20141;-45
2023/04/01 02:19:45;;;;;;;2.05;1.15;;;12.80;75.60;;;;;;5011857;28;20173;-48
2023/04/01 02:22:16;;;;;;;1.42;0.75;;;12.80;75.30;;;;;;5008092;28;20041;-48
2023/04/01 02:24:46;;;;;;;0.82;0.60;;;12.80;75.50;;;;;;5011587;28;20499;-46
2023/04/01 02:27:13;;;;;;;2.63;0.60;;;12.80;75.50;;;;;;5031615;28;20046;-47
2023/04/01 02:29:40;;;;;;;0.70;0.70;;;12.80;75.50;;;;;;5020921;28;20125;-45
2023/04/01 02:32:09;;;;;;;0.93;0.55;;;12.80;75.60;;;;;;4997047;28;20060;-46
2023/04/01 02:34:36;;;;;;;1.42;0.82;;;12.80;75.80;;;;;;5009309;28;20037;-48
2023/04/01 02:37:12;;;;;;;5.63;0.80;;;12.80;75.70;;;;;;5021008;28;20059;-48
2023/04/01 02:39:42;;;;;;;1.05;0.98;;;12.80;76.30;;;;;;5008881;28;20053;-47
2023/04/01 02:42:09;;;;;;;0.73;0.73;;;12.70;75.80;;;;;;5030217;28;20040;-48
2023/04/01 02:44:36;;;;;;;1.48;0.70;;;12.70;75.80;;;;;;5010034;28;20068;-46
2023/04/01 02:47:07;;;;;;;3.28;0.60;;;12.70;75.90;;;;;;5014026;28;20045;-48
2023/04/01 02:49:39;;;;;;;0.80;0.70;;;12.70;76.00;;;;;;5014747;28;20092;-47
2023/04/01 02:52:06;;;;;;;2.53;0.50;;;12.70;76.20;;;;;;4991521;28;20049;-47
2023/04/01 02:54:37;;;;;;;2.05;1.08;;;12.70;76.20;;;;;;5009519;28;20385;-47
2023/04/01 02:57:03;;;;;;;1.08;0.70;;;12.70;76.40;;;;;;5004776;28;20060;-47
2023/04/01 02:59:32;;;;;;;1.13;0.63;;;12.70;76.20;;;;;;4999858;28;20088;-48
2023/04/01 03:02:01;;;;;;;1.98;0.70;;;12.70;76.30;;;;;;5011090;28;20555;-45
2023/04/01 03:04:29;;;;;;;0.50;0.50;;;12.70;76.40;;;;;;5013328;28;20048;-48
2023/04/01 03:06:56;;;;;;;0.40;0.35;;;12.70;76.30;;;;;;5016638;28;20140;-49
2023/04/01 03:09:22;;;;;;;2.22;0.50;;;12.70;76.40;;;;;;5009095;28;20052;-47
2023/04/01 03:11:51;;;;;;;1.00;0.43;;;12.70;76.50;;;;;;5003097;28;20077;-47
2023/04/01 03:14:20;;;;;;;1.35;0.45;;;12.70;76.50;;;;;;5031066;28;20068;-46
2023/04/01 03:16:48;;;;;;;1.77;0.60;;;12.70;76.50;;;;;;5005947;28;20129;-47
2023/04/01 03:19:18;;;;;;;0.82;0.50;;;12.70;76.50;;;;;;4999694;28;20037;-48
2023/04/01 03:21:47;;;;;;;1.58;0.70;;;12.70;76.50;;;;;;4988886;28;20102;-45
2023/04/01 03:24:13;;;;;;;3.83;0.82;;;12.70;76.60;;;;;;5007637;28;20053;-48
2023/04/01 03:26:42;;;;;;;0.80;0.45;;;12.70;76.60;;;;;;5011498;28;20123;-47
2023/04/01 03:29:09;;;;;;;1.10;0.40;;;12.70;76.70;;;;;;4997469;28;20043;-49
2023/04/01 03:31:40;;;;;;;1.10;0.40;;;12.70;76.70;;;;;;5006091;28;20054;-44
2023/04/01 03:34:12;;;;;;;0.82;0.52;;;12.70;76.80;;;;;;5009124;28;20053;-45
2023/04/01 03:36:41;;;;;;;0.55;0.30;;;12.70;76.90;;;;;;4988380;28;20053;-45
2023/04/01 03:39:14;;;;;;;1.40;0.65;;;12.70;76.60;;;;;;4998528;28;20042;-45
2023/04/01 03:41:40;;;;;;;0.45;0.45;;;12.80;76.90;;;;;;5009071;28;20045;-46
2023/04/01 03:44:07;;;;;;;0.65;0.40;;;12.80;76.80;;;;;;5018184;28;20045;-48
2023/04/01 03:46:35;;;;;;;2.20;0.50;;;12.80;76.80;;;;;;5013225;28;20045;-48
2023/04/01 03:49:11;;;;;;;2.40;0.50;;;12.80;76.90;;;;;;5008895;28;20045;-44
2023/04/01 03:51:39;;;;;;;0.55;0.55;;;12.70;76.90;;;;;;5005119;28;20121;-45
2023/04/01 03:54:06;;;;;;;0.40;0.40;;;12.80;77.00;;;;;;5006513;28;20379;-45
2023/04/01 03:56:35;;;;;;;0.60;0.40;;;12.70;77.10;;;;;;5011544;28;20780;-45
2023/04/01 03:59:05;;;;;;;3.55;0.70;;;12.80;77.20;;;;;;5030901;28;20116;-46
2023/04/01 04:01:31;;;;;;;0.52;0.40;;;12.80;77.20;;;;;;4994445;28;20042;-45
2023/04/01 04:04:00;;;;;;;0.73;0.73;;;12.80;77.20;;;;;;4993187;28;20725;-48
2023/04/01 04:06:29;;;;;;;0.50;0.50;;;12.70;77.20;;;;;;5008153;28;20046;-45
2023/04/01 04:08:56;;;;;;;0.60;0.60;;;12.70;77.00;;;;;;4986871;28;20046;-45
2023/04/01 04:11:27;;;;;;;0.70;0.70;;;12.80;77.10;;;;;;5008541;28;20041;-45
2023/04/01 04:13:53;;;;;;;2.30;0.60;;;12.80;77.20;;;;;;5002122;28;20038;-45
2023/04/01 04:16:27;;;;;;;0.70;0.70;;;12.80;77.10;;;;;;5009666;28;20136;-47
2023/04/01 04:19:00;;;;;;;0.50;0.50;;;12.80;77.10;;;;;;5008301;28;20137;-49
2023/04/01 04:21:29;;;;;;;1.05;0.95;;;12.80;77.00;;;;;;4988785;28;20053;-47
2023/04/01 04:24:01;;;;;;;1.55;0.70;;;12.70;76.90;;;;;;5019487;28;20045;-47
2023/04/01 04:26:39;;;;;;;0.93;0.80;;;12.80;77.10;;;;;;5010785;28;20104;-47
2023/04/01 04:29:08;;;;;;;1.45;0.60;;;12.80;77.10;;;;;;5030342;28;20038;-48
2023/04/01 04:31:35;;;;;;;1.02;0.93;;;12.70;77.00;;;;;;5011099;28;20077;-49
2023/04/01 04:34:06;;;;;;;1.08;0.98;;;12.80;77.10;;;;;;5010836;28;20045;-46
2023/04/01 04:36:35;;;;;;;0.75;0.75;;;12.70;76.90;;;;;;4997008;28;20474;-46
2023/04/01 04:39:04;;;;;;;1.58;1.17;;;12.70;76.90;;;;;;5047623;22;20056;-46
2023/04/01 04:41:37;;;;;;;2.33;1.00;;;12.70;77.00;;;;;;5027519;28;20041;-50
2023/04/01 04:44:05;;;;;;;1.52;1.02;;;12.70;76.90;;;;;;5011970;28;20053;-50
2023/04/01 04:46:36;;;;;;;0.93;0.93;;;12.70;76.90;;;;;;5027054;28;20065;-49
2023/04/01 04:49:14;;;;;;;1.58;1.20;;;12.70;77.00;;;;;;5009834;28;20067;-50
2023/04/01 04:51:41;;;;;;;2.70;1.30;;;12.70;77.10;;;;;;5019884;28;20049;-47
2023/04/01 04:54:07;;;;;;;1.33;1.13;;;12.70;77.00;;;;;;5017941;28;20069;-48
2023/04/01 04:56:54;;;;;;;1.33;1.25;;;12.70;77.10;;;;;;5026875;28;20526;-47
2023/04/01 04:59:25;;;;;;;2.05;1.30;;;12.70;77.10;;;;;;5020148;28;20092;-46
2023/04/01 05:02:04;;;;;;;1.00;1.00;;;12.70;77.10;;;;;;5011374;28;20045;-49
2023/04/01 05:04:35;;;;;;;1.30;1.20;;;12.70;77.10;;;;;;5025126;28;20044;-48
2023/04/01 05:07:03;;;;;;;1.58;1.05;;;12.70;77.40;;;;;;5023472;28;20049;-49
2023/04/01 05:09:32;;;;;;;2.78;1.38;;;12.70;77.40;;;;;;5007659;28;20037;-50
2023/04/01 05:11:58;;;;;;;1.98;1.40;;;12.70;77.20;;;;;;5020127;28;20053;-47
2023/04/01 05:14:27;;;;;;;2.13;1.40;;;12.70;77.30;;;;;;5028319;28;20049;-50
2023/04/01 05:17:04;;;;;;;1.45;1.35;;;12.70;77.20;;;;;;5017086;28;20038;-47
2023/04/01 05:19:34;;;;;;;1.63;1.52;;;12.70;77.20;;;;;;5028634;28;20095;-48
2023/04/01 05:22:00;;;;;;;1.77;1.67;;;12.70;77.40;;;;;;5004580;28;20068;-47
2023/04/01 05:24:30;;;;;;;2.40;1.75;;;12.70;77.40;;;;;;4998082;28;20046;-47
2023/04/01 05:26:57;;;;;;;1.95;1.80;;;12.70;77.40;;;;;;5007594;28;20072;-49
2023/04/01 05:29:26;;;;;;;2.08;1.98;;;12.70;77.20;;;;;;4995672;28;20046;-46
2023/04/01 05:32:00;;;;;;;2.50;2.30;;;12.70;77.20;;;;;;5023975;28;20053;-47
2023/04/01 05:34:28;;;;;;;2.72;2.50;;;12.60;77.20;;;;;;5009761;28;20132;-50
2023/04/01 05:36:58;;;;;;;2.33;2.10;;;12.60;77.20;;;;;;5016127;28;20065;-48
2023/04/01 05:39:24;;;;;;;2.33;2.13;;;12.60;77.30;;;;;;4998851;28;20066;-46
2023/04/01 05:41:52;;;;;;;2.28;2.10;;;12.60;77.30;;;;;;5016516;28;20074;-46
2023/04/01 05:44:18;;;;;;;4.28;2.28;;;12.60;77.40;;;;;;5012722;28;20034;-45
2023/04/01 05:46:48;;;;;;;2.97;2.08;;;12.60;77.40;;;;;;5024238;28;20120;-45
2023/04/01 05:49:21;;;;;;;2.47;1.90;;;12.60;77.30;;;;;;5009869;28;20041;-50
2023/04/01 05:51:51;;;;;;;1.98;1.88;;;12.60;77.30;;;;;;5020856;28;20053;-45
2023/04/01 05:54:18;;;;;;;2.13;1.65;;;12.60;77.30;;;;;;5026557;28;20056;-47
2023/04/01 05:56:45;;;;;;;1.50;1.40;;;12.60;77.90;;;;;;5026454;28;20050;-46
2023/04/01 05:59:14;;;;;;;2.05;1.83;;;12.60;77.30;;;;;;5021296;28;20052;-47
2023/04/01 06:01:41;;;;;;;1.40;1.30;;;12.80;77.50;;;;;;5010573;28;20604;-47
2023/04/01 06:04:15;;;;;;;1.80;1.70;;;12.60;77.40;;;;;;5026612;28;20175;-47
2023/04/01 06:06:44;;;;;;;1.60;1.40;;;12.60;77.60;;;;;;5023288;28;20421;-46
2023/04/01 06:09:13;;;;;;;1.40;1.30;;;12.60;77.40;;;;;;5007030;28;20524;-49
2023/04/01 06:11:53;;;;;;;2.60;1.40;;;12.60;77.60;;;;;;5012636;28;20422;-50
2023/04/01 06:15:03;;;;;;;1.92;1.70;;;12.60;77.70;;;;;;5013538;28;20041;-47
2023/04/01 06:18:07;;;;;;;1.60;1.50;;;12.60;78.40;;;;;;5020784;28;20490;-47
2023/04/01 06:21:00;;;;;;;1.80;1.08;;;12.60;78.30;;;;;;5005128;28;20041;-47
2023/04/01 06:24:02;;;;;;;1.50;1.40;;;12.60;77.80;;;;;;5007196;28;20128;-47
2023/04/01 06:26:44;;;;;;;1.63;1.52;;;12.60;78.40;;;;;;5025835;28;20050;-48
2023/04/01 06:29:29;;;;;;;1.38;1.27;;;12.60;78.20;;;;;;5029275;28;20049;-46
2023/04/01 06:32:25;;;;;;;1.10;1.05;;;12.60;77.70;;;;;;5009286;28;20095;-46
2023/04/01 06:35:15;;;;;;;1.52;1.42;;;12.60;78.20;;;;;;5009692;28;20088;-46
2023/04/01 06:38:00;;;;;;;1.60;1.50;;;12.60;78.00;;;;;;4998074;28;20073;-48
2023/04/01 06:40:55;;;;;;;1.52;1.42;;;12.60;78.20;;;;;;5009852;28;20067;-47
2023/04/01 06:43:49;;;;;;;1.05;1.02;;;12.60;78.50;;;;;;5007313;28;20049;-50
2023/04/01 06:46:45;;;;;;;1.58;1.48;;;12.60;78.30;;;;;;5020051;28;20045;-50
2023/04/01 06:49:49;;;;;;;4.22;3.08;;;12.60;78.80;;;;;;5026941;28;20608;-50
2023/04/01 06:52:57;;;;;;;3.60;3.25;;;12.60;78.10;;;;;;5020218;28;20123;-50
2023/04/01 06:56:07;;;;;;;3.00;2.80;;;12.60;78.80;;;;;;5027346;28;20135;-47
2023/04/01 06:59:10;;;;;;;2.93;2.73;;;12.50;79.40;;;;;;5028587;28;20049;-50
2023/04/01 07:01:40;;;;;;;4.18;3.85;;;12.50;79.30;;;;;;5027327;28;20292;-50
2023/04/01 07:04:31;;;;;;;4.32;3.92;;;12.50;79.00;;;;;;5029137;28;20068;-48
2023/04/01 07:07:33;;;;;;;3.80;3.60;;;12.50;79.60;;;;;;5011249;28;20127;-50
2023/04/01 07:10:14;;;;;;;5.20;4.40;;;12.50;79.80;;;;;;5012488;28;20042;-50
2023/04/01 07:13:06;;;;;;;4.13;3.83;;;12.50;79.60;;;;;;5031976;28;20045;-50
2023/04/01 07:16:01;;;;;;;3.40;3.10;;;12.70;79.50;;;;;;5025758;28;20625;-48
2023/04/01 07:18:37;;;;;;;3.85;3.45;;;12.50;79.70;;;;;;5007082;28;20488;-50
2023/04/01 07:21:10;;;;;;;5.10;4.70;;;12.50;79.90;;;;;;5014362;28;20128;-49
2023/04/01 07:23:42;;;;;;;5.10;4.70;;;12.40;79.90;;;;;;5028611;28;20096;-49
2023/04/01 07:26:29;;;;;;;5.70;5.20;;;12.50;80.30;;;;;;5023586;28;20049;-50
2023/04/01 07:29:13;;;;;;;6.57;6.03;;;12.50;80.10;;;;;;5011534;28;20111;-48
2023/04/01 07:32:08;;;;;;;6.53;6.03;;;12.50;80.10;;;;;;5025946;28;20464;-46
2023/04/01 07:34:51;;;;;;;6.18;5.68;;;12.50;80.70;;;;;;4994248;28;20042;-48
2023/04/01 07:37:40;;;;;;;7.93;7.22;;;12.50;80.10;;;;;;5012925;28;20052;-46
2023/04/01 07:40:20;;;;;;;7.63;6.93;;;12.50;80.20;;;;;;5023215;28;20045;-46
2023/04/01 07:43:21;;;;;;;7.65;6.95;;;12.50;80.60;;;;;;5014120;28;20046;-48
2023/04/01 07:46:30;;;;;;;7.53;6.90;;;12.50;80.50;;;;;;5009719;28;20057;-50
2023/04/01 07:49:25;;;;;;;8.00;7.20;;;12.50;80.70;;;;;;5014851;28;20096;-49
2023/04/01 07:51:59;;;;;;;6.43;5.82;;;12.50;81.20;;;;;;5023518;28;20060;-48
2023/04/01 07:54:44;;;;;;;6.65;6.07;;;12.50;80.60;;;;;;5028107;28;20521;-50
2023/04/01 07:57:20;;;;;;;7.70;6.82;;;12.60;81.20;;;;;;5030673;28;20049;-49
2023/04/01 08:00:01;;;;;;;6.13;5.57;;;12.60;80.80;;;;;;5020187;28;20049;-52
2023/04/01 08:02:58;;;;;;;6.85;6.25;;;12.60;80.90;;;;;;5025910;28;20125;-51
2023/04/01 08:05:39;;;;;;;6.82;6.32;;;12.60;80.90;;;;;;5020210;28;20058;-47
2023/04/01 08:08:25;;;;;;;6.22;5.72;;;12.60;80.90;;;;;;5024820;28;20697;-50
2023/04/01 08:11:39;;;;;;;4.22;3.92;;;12.70;81.60;;;;;;5028733;28;20076;-50
2023/04/01 08:15:01;;;;;;;3.80;3.50;;;12.70;81.00;;;;;;5026441;28;20175;-51
2023/04/01 08:17:55;;;;;;;4.85;4.38;;;12.70;81.40;;;;;;5026444;28;20059;-51
2023/04/01 08:20:39;;;;;;;5.47;4.97;;;12.70;81.00;;;;;;5024877;28;20041;-51
2023/04/01 08:23:16;;;;;;;5.53;5.03;;;12.70;80.80;;;;;;5001705;28;20045;-49
2023/04/01 08:26:08;;;;;;;5.70;5.20;;;12.70;80.80;;;;;;5027759;28;20062;-50
2023/04/01 08:28:51;;;;;;;4.82;4.28;;;12.70;80.60;;;;;;4975614;28;20053;-48
2023/04/01 08:31:38;;;;;;;3.80;3.50;;;12.80;80.80;;;;;;5024359;28;20670;-48
2023/04/01 08:34:18;;;;;;;3.33;3.05;;;12.70;80.80;;;;;;5029389;28;20401;-51
2023/04/01 08:37:04;;;;;;;4.20;3.88;;;12.80;80.80;;;;;;5026761;28;20418;-47
2023/04/01 08:39:48;;;;;;;4.20;3.90;;;12.70;80.80;;;;;;5013439;28;20048;-51
2023/04/01 08:42:24;;;;;;;4.63;3.92;;;12.70;80.70;;;;;;5008524;28;20045;-47
2023/04/01 08:45:33;;;;;;;4.78;4.38;;;12.70;80.50;;;;;;5008496;28;20045;-48
2023/04/01 08:48:19;;;;;;;5.60;5.07;;;12.80;80.90;;;;;;5001403;28;20050;-50
2023/04/01 08:51:16;;;;;;;7.55;5.70;;;12.70;80.60;;;;;;5016212;28;20056;-49
2023/04/01 08:54:04;;;;;;;5.78;5.28;;;12.80;80.70;;;;;;5006858;28;20539;-51
2023/04/01 08:56:49;;;;;;;6.72;6.10;;;12.80;80.60;;;;;;5029326;28;20587;-46
2023/04/01 08:59:39;;;;;;;6.13;5.57;;;12.80;80.70;;;;;;5026379;28;20711;-51
2023/04/01 09:03:05;;;;;;;5.80;5.30;;;12.80;80.50;;;;;;5030125;28;20106;-48
2023/04/01 09:05:47;;;;;;;5.63;5.13;;;12.80;80.70;;;;;;5026810;28;20029;-48
2023/04/01 09:08:29;;;;;;;5.57;5.05;;;12.80;80.90;;;;;;5025420;28;20125;-51
2023/04/01 09:11:11;;;;;;;6.15;5.63;;;12.80;80.50;;;;;;5015538;28;20391;-50
2023/04/01 09:14:27;;;;;;;5.50;4.95;;;12.80;81.10;;;;;;5020072;28;20119;-48
2023/04/01 09:17:36;;;;;;;5.70;5.20;;;12.90;81.70;;;;;;5009734;28;20068;-47
2023/04/01 09:20:30;;;;;;;5.85;5.35;;;13.00;81.70;;;;;;5005522;28;20049;-51
2023/04/01 09:23:30;;;;;;;6.63;6.03;;;13.10;82.00;;;;;;5010719;28;20037;-48
2023/04/01 09:26:04;;;;;;;6.55;5.97;;;13.20;81.30;;;;;;5009212;28;20054;-49
2023/04/01 09:28:49;;;;;;;7.72;7.03;;;13.20;81.90;;;;;;5028221;28;20544;-49
2023/04/01 09:31:25;;;;;;;7.53;6.82;;;13.30;81.30;;;;;;5003818;28;20073;-51
2023/04/01 09:34:26;;;;;;;7.90;7.20;;;13.30;81.10;;;;;;5026630;28;20057;-49
2023/04/01 09:37:07;;;;;;;8.40;7.68;;;13.40;80.80;;;;;;5005917;28;20077;-51
2023/04/01 09:40:14;;;;;;;8.60;7.80;;;13.50;81.10;;;;;;5020780;28;20037;-50
2023/04/01 09:43:04;;;;;;;8.68;7.97;;;13.50;81.40;;;;;;5025346;28;20046;-48
2023/04/01 09:45:34;;;;;;;8.98;8.15;;;13.60;80.80;;;;;;5026548;28;20088;-50
2023/04/01 09:48:39;;;;;;;7.10;6.50;;;13.70;80.50;;;;;;5015180;28;20132;-47
2023/04/01 09:51:23;;;;;;;4.72;4.30;;;13.70;80.50;;;;;;5022549;28;20099;-51
2023/04/01 09:54:03;;;;;;;4.55;4.18;;;13.80;80.10;;;;;;5012445;28;20095;-51
2023/04/01 09:56:51;;;;;;;3.78;3.47;;;13.80;79.50;;;;;;5027059;28;20061;-49
2023/04/01 09:59:46;;;;;;;3.65;3.40;;;13.90;79.20;;;;;;5028380;28;20057;-51
2023/04/01 10:02:34;;;;;;;4.28;3.97;;;13.90;79.30;;;;;;5033185;28;20135;-51
2023/04/01 10:05:14;;;;;;;5.43;4.93;;;14.00;79.10;;;;;;5011857;28;20046;-51
2023/04/01 10:08:18;;;;;;;4.55;4.25;;;14.00;79.30;;;;;;5024402;28;20549;-49
2023/04/01 10:11:15;;;;;;;6.95;6.35;;;14.00;78.80;;;;;;5020581;28;20038;-49
2023/04/01 10:14:15;;;;;;;6.25;5.65;;;14.10;79.00;;;;;;5020780;28;20076;-51
2023/04/01 10:17:20;;;;;;;7.18;6.55;;;14.20;79.20;;;;;;5002774;28;20077;-51
2023/04/01 10:20:18;;;;;;;7.65;7.03;;;14.30;79.40;;;;;;5017497;28;20132;-47
2023/04/01 10:22:48;;;;;;;9.90;9.00;;;14.50;79.50;;;;;;5019683;28;20037;-47
2023/04/01 10:25:37;;;;;;;9.52;8.73;;;14.60;79.00;;;;;;5018254;28;20518;-47
2023/04/01 10:28:23;;;;;;;9.60;8.80;;;14.70;78.10;;;;;;5021331;28;20402;-50
2023/04/01 10:31:25;;;;;;;9.35;8.55;;;14.70;76.80;;;;;;5020313;28;20728;-48
2023/04/01 10:34:22;;;;;;;8.35;7.65;;;14.70;76.20;;;;;;5019577;28;20506;-50
2023/04/01 10:36:54;;;;;;;8.70;7.90;;;14.70;75.60;;;;;;5025377;28;20121;-51
2023/04/01 10:40:02;;;;;;;8.32;7.63;;;14.70;75.60;;;;;;5003524;28;20095;-47
2023/04/01 10:43:02;;;;;;;6.00;5.60;;;14.60;75.50;;;;;;4993279;28;20137;-50
2023/04/01 10:46:02;;;;;;;6.65;5.72;;;14.60;75.40;;;;;;5024557;28;20049;-48
2023/04/01 10:48:55;;;;;;;5.40;4.93;;;14.50;75.50;;;;;;5026816;28;20502;-51
2023/04/01 10:51:40;;;;;;;7.45;6.78;;;14.40;75.80;;;;;;5005907;28;20057;-47
2023/04/01 10:54:34;;;;;;;11.45;9.73;;;14.40;75.80;;;;;;5012852;23;20049;-53
2023/04/01 10:58:05;;;;;;;10.32;9.43;;;14.30;76.10;;;;;;5010805;28;20230;-48
2023/04/01 11:01:31;;;;;;;9.48;8.60;;;14.30;76.10;;;;;;5001190;28;20086;-50
2023/04/01 11:04:55;;;;;;;8.65;7.82;;;14.20;76.10;;;;;;4995166;28;20062;-50
2023/04/01 11:08:10;;;;;;;8.52;7.72;;;14.10;75.70;;;;;;5004706;28;20052;-51
2023/04/01 11:11:17;;;;;;;7.32;6.70;;;14.10;76.00;;;;;;5004269;28;20050;-49
2023/04/01 11:14:23;;;;;;;8.35;7.47;;;14.00;76.10;;;;;;4998324;28;20129;-49
2023/04/01 11:17:28;;;;;;;7.78;6.57;;;14.00;76.30;;;;;;4998934;28;20141;-51
2023/04/01 11:20:24;;;;;;;8.30;7.40;;;14.00;76.50;;;;;;5001235;28;20513;-49
2023/04/01 11:23:27;;;;;;;7.18;6.45;;;13.90;76.40;;;;;;5001990;28;20045;-49
2023/04/01 11:26:00;;;;;;;7.10;6.53;;;13.90;76.40;;;;;;5010397;28;20073;-51
2023/04/01 11:29:18;;;;;;;6.55;6.00;;;13.90;76.40;;;;;;4988201;28;20685;-49
2023/04/01 11:32:12;;;;;;;6.20;5.70;;;13.90;76.80;;;;;;5004901;28;20053;-49
2023/04/01 11:35:03;;;;;;;6.18;5.70;;;14.00;76.70;;;;;;5005457;28;20050;-50
2023/04/01 11:37:38;;;;;;;6.20;5.63;;;14.00;76.80;;;;;;4994700;28;20422;-54
2023/04/01 11:40:35;;;;;;;5.68;5.25;;;14.00;76.80;;;;;;5011761;28;20069;-50
2023/04/01 11:43:38;;;;;;;5.95;4.95;;;14.10;76.70;;;;;;5001518;28;20057;-53
2023/04/01 11:46:31;;;;;;;4.85;4.47;;;14.10;76.80;;;;;;5000306;28;20049;-54
2023/04/01 11:49:20;;;;;;;4.90;4.43;;;14.20;76.60;;;;;;5002901;28;20107;-52
2023/04/01 11:52:05;;;;;;;5.82;5.32;;;14.20;76.30;;;;;;5009018;28;20080;-50
2023/04/01 11:55:04;;;;;;;4.55;4.18;;;14.20;76.20;;;;;;4995050;28;20524;-51
2023/04/01 11:57:37;;;;;;;4.78;4.35;;;14.20;76.10;;;;;;5001448;28;20041;-51
2023/04/01 12:00:24;;;;;;;;;;;14.20;76.00;;;;;;4998060;28;20045;-51
2023/04/01 12:03:37;;;;;;;4.30;3.83;;;14.20;76.00;;;;;;5000962;28;20404;-51
2023/04/01 12:06:46;;;;;;;3.20;2.97;;;14.20;76.00;;;;;;5007463;28;20080;-50
2023/04/01 12:09:35;;;;;;;2.78;2.58;;;14.20;75.80;;;;;;4981520;28;20058;-55
2023/04/01 12:12:20;;;;;;;3.20;3.00;;;14.20;75.60;;;;;;4997145;28;20448;-53
2023/04/01 12:14:50;;;;;;;3.10;2.80;;;14.10;75.50;;;;;;5002694;28;20829;-54
2023/04/01 12:17:35;;;;;;;3.08;2.88;;;14.10;75.50;;;;;;5008697;28;20429;-54
2023/04/01 12:20:10;;;;;;;2.65;2.45;;;14.10;75.90;;;;;;4993753;28;20105;-51
2023/04/01 12:22:56;;;;;;;3.10;2.90;;;14.00;75.80;;;;;;4995100;28;20053;-54
2023/04/01 12:25:25;;;;;;;2.88;2.67;;;14.00;75.60;;;;;;5010898;28;20117;-54
2023/04/01 12:28:01;;;;;;;2.28;2.15;;;14.00;75.90;;;;;;5010545;28;20049;-54
2023/04/01 12:30:34;;;;;;;2.30;2.20;;;14.00;76.10;;;;;;4993390;28;20042;-52
2023/04/01 12:33:28;;;;;;;2.70;2.50;;;14.00;76.40;;;;;;4994190;28;20475;-50
2023/04/01 12:36:37;;;;;;;2.90;2.70;;;14.00;76.40;;;;;;5009393;28;20730;-55
2023/04/01 12:39:56;;;;;;;2.80;2.60;;;14.00;76.40;;;;;;4997994;28;20042;-54
2023/04/01 12:42:51;;;;;;;2.50;2.30;;;14.10;76.20;;;;;;4950225;28;20053;-52
2023/04/01 12:45:31;;;;;;;2.30;2.20;;;14.10;76.10;;;;;;4955658;28;20049;-51
2023/04/01 12:48:29;;;;;;;2.67;2.38;;;14.10;76.10;;;;;;4989981;28;20105;-53
2023/04/01 12:51:20;;;;;;;2.58;2.47;;;14.10;76.10;;;;;;4987360;28;20042;-53
2023/04/01 12:54:26;;;;;;;2.95;2.65;;;14.10;76.10;;;;;;4989118;28;20066;-54
2023/04/01 12:57:31;;;;;;;2.40;2.30;;;14.10;76.10;;;;;;5009226;28;20073;-53
2023/04/01 13:00:11;;;;;;;2.60;2.45;;;14.10;75.90;;;;;;4993482;28;20050;-54
2023/04/01 13:03:04;;;;;;;2.63;2.42;;;14.10;76.00;;;;;;4999892;28;20092;-54
2023/04/01 13:05:55;;;;;;;2.30;2.20;;;14.10;76.20;;;;;;5001427;28;20041;-55
2023/04/01 13:08:42;;;;;;;2.45;2.33;;;14.20;75.90;;;;;;5003581;28;20045;-54
2023/04/01 13:11:32;;;;;;;2.97;2.67;;;14.20;75.90;;;;;;5005704;28;20048;-51
2023/04/01 13:14:04;;;;;;;2.58;2.38;;;14.20;75.90;;;;;;5003847;28;20054;-53
2023/04/01 13:16:38;;;;;;;2.17;2.00;;;14.20;75.90;;;;;;4995563;28;20077;-54
2023/04/01 13:19:20;;;;;;;2.63;2.40;;;14.20;75.80;;;;;;4991346;28;20420;-51
2023/04/01 13:21:59;;;;;;;2.22;2.13;;;14.20;75.80;;;;;;4999703;28;20538;-51
2023/04/01 13:24:31;;;;;;;3.08;2.17;;;14.20;75.90;;;;;;5012491;28;20042;-53
2023/04/01 13:27:20;;;;;;;2.75;2.55;;;14.30;76.10;;;;;;5012971;28;20096;-54
2023/04/01 13:30:01;;;;;;;2.15;2.05;;;14.30;76.70;;;;;;4995478;28;20069;-54
2023/04/01 13:32:47;;;;;;;2.78;2.53;;;14.30;76.50;;;;;;4999254;28;20046;-51
2023/04/01 13:35:28;;;;;;;2.72;2.53;;;14.40;76.80;;;;;;5013080;28;20065;-51
2023/04/01 13:38:03;;;;;;;2.10;1.90;;;14.40;76.70;;;;;;5003705;28;20129;-54
2023/04/01 13:40:43;;;;;;;2.67;2.50;;;14.30;76.40;;;;;;5001719;28;20038;-55
2023/04/01 13:43:36;;;;;;;2.47;2.28;;;14.30;76.60;;;;;;5011560;28;20045;-51
2023/04/01 13:46:40;;;;;;;2.50;2.30;;;14.20;76.80;;;;;;5007571;28;20125;-56
2023/04/01 13:49:31;;;;;;;2.10;2.00;;;14.20;77.10;;;;;;4990663;28;20046;-52
2023/04/01 13:52:35;;;;;;;1.95;1.85;;;14.20;77.20;;;;;;4992791;28;20057;-55
2023/04/01 13:55:21;;;;;;;2.33;2.00;;;14.10;77.30;;;;;;4985667;28;20074;-57
2023/04/01 13:58:11;;;;;;;2.00;1.90;;;14.10;77.60;;;;;;5006792;28;20061;-55
2023/04/01 14:01:03;;;;;;;2.03;1.92;;;14.00;77.40;;;;;;4998143;28;20046;-54
2023/04/01 14:03:38;;;;;;;2.65;2.33;;;14.00;77.40;;;;;;4993000;28;20042;-55